sensor_id;sensor_type;location;lat;lon;timestamp;temperature;humidity
2062;DHT22;11070;51.336;12.340;2022-11-12T00:01:30;7.80;1.00
2062;DHT22;11070;51.336;12.340;2022-11-12T00:03:56;7.80;1.00
2062;DHT22;11070;51.336;12.340;2022-11-12T00:06:22;7.70;1.00
2062;DHT22;11070;51.336;12.340;2022-11-12T00:08:48;7.70;1.00
2062;DHT22;11070;51.336;12.340;2022-11-12T00:11:14;7.70;1.00
2062;DHT22;11070;51.336;12.340;2022-11-12T00:13:46;7.60;1.00
2062;DHT22;11070;51.336;12.340;2022-11-12T00:16:18;7.60;1.00
2062;DHT22;11070;51.336;12.340;2022-11-12T00:18:46;7.60;1.00
2062;DHT22;11070;51.336;12.340;2022-11-12T00:21:17;7.60;1.00
2062;DHT22;11070;51.336;12.340;2022-11-12T00:24:03;7.60;1.00
2062;DHT22;11070;51.336;12.340;2022-11-12T00:26:30;7.70;1.00
2062;DHT22;11070;51.336;12.340;2022-11-12T00:29:02;7.70;1.00
2062;DHT22;11070;51.336;12.340;2022-11-12T00:31:28;7.70;1.00
2062;DHT22;11070;51.336;12.340;2022-11-12T00:33:54;7.70;1.00
2062;DHT22;11070;51.336;12.340;2022-11-12T00:36:22;7.70;1.00
2062;DHT22;11070;51.336;12.340;2022-11-12T00:38:52;7.60;1.00
2062;DHT22;11070;51.336;12.340;2022-11-12T00:41:21;7.60;1.00
2062;DHT22;11070;51.336;12.340;2022-11-12T00:43:46;7.60;1.00
2062;DHT22;11070;51.336;12.340;2022-11-12T00:46:15;7.60;1.00
2062;DHT22;11070;51.336;12.340;2022-11-12T00:48:41;7.60;1.00
2062;DHT22;11070;51.336;12.340;2022-11-12T00:51:10;7.60;1.00
2062;DHT22;11070;51.336;12.340;2022-11-12T00:53:36;7.60;1.00
2062;DHT22;11070;51.336;12.340;2022-11-12T00:56:05;7.60;1.00
2062;DHT22;11070;51.336;12.340;2022-11-12T00:58:33;7.60;1.00
2062;DHT22;11070;51.336;12.340;2022-11-12T01:01:12;7.60;1.00
2062;DHT22;11070;51.336;12.340;2022-11-12T01:03:39;7.60;1.00
2062;DHT22;11070;51.336;12.340;2022-11-12T01:06:07;7.60;1.00
2062;DHT22;11070;51.336;12.340;2022-11-12T01:08:33;7.60;1.00
2062;DHT22;11070;51.336;12.340;2022-11-12T01:13:32;7.60;1.00
2062;DHT22;11070;51.336;12.340;2022-11-12T01:15:58;7.60;1.00
2062;DHT22;11070;51.336;12.340;2022-11-12T01:18:23;7.50;1.00
2062;DHT22;11070;51.336;12.340;2022-11-12T01:20:49;7.50;1.00
2062;DHT22;11070;51.336;12.340;2022-11-12T01:23:15;7.50;1.00
2062;DHT22;11070;51.336;12.340;2022-11-12T01:25:41;7.50;1.00
2062;DHT22;11070;51.336;12.340;2022-11-12T01:28:06;7.50;1.00
2062;DHT22;11070;51.336;12.340;2022-11-12T01:30:32;7.40;1.00
2062;DHT22;11070;51.336;12.340;2022-11-12T01:32:58;7.40;1.00
2062;DHT22;11070;51.336;12.340;2022-11-12T01:35:24;7.80;1.00
2062;DHT22;11070;51.336;12.340;2022-11-12T01:37:49;7.50;1.00
2062;DHT22;11070;51.336;12.340;2022-11-12T01:40:15;7.50;1.00
2062;DHT22;11070;51.336;12.340;2022-11-12T01:42:41;7.50;1.00
2062;DHT22;11070;51.336;12.340;2022-11-12T01:45:14;7.50;1.00
2062;DHT22;11070;51.336;12.340;2022-11-12T01:47:41;7.40;1.00
2062;DHT22;11070;51.336;12.340;2022-11-12T01:53:14;7.50;1.00
2062;DHT22;11070;51.336;12.340;2022-11-12T01:55:40;7.50;1.00
2062;DHT22;11070;51.336;12.340;2022-11-12T01:58:12;7.60;1.00
2062;DHT22;11070;51.336;12.340;2022-11-12T02:00:40;7.70;1.00
2062;DHT22;11070;51.336;12.340;2022-11-12T02:03:12;7.70;1.00
2062;DHT22;11070;51.336;12.340;2022-11-12T02:05:40;7.60;1.00
2062;DHT22;11070;51.336;12.340;2022-11-12T02:08:08;7.60;1.00
2062;DHT22;11070;51.336;12.340;2022-11-12T02:10:37;7.50;1.00
2062;DHT22;11070;51.336;12.340;2022-11-12T02:13:07;7.50;1.00
2062;DHT22;11070;51.336;12.340;2022-11-12T02:15:51;7.50;1.00
2062;DHT22;11070;51.336;12.340;2022-11-12T02:18:17;7.50;1.00
2062;DHT22;11070;51.336;12.340;2022-11-12T02:20:43;7.50;1.00
2062;DHT22;11070;51.336;12.340;2022-11-12T02:23:09;7.50;1.00
2062;DHT22;11070;51.336;12.340;2022-11-12T02:25:36;7.40;1.00
2062;DHT22;11070;51.336;12.340;2022-11-12T02:28:05;7.40;1.00
2062;DHT22;11070;51.336;12.340;2022-11-12T02:30:37;7.30;1.00
2062;DHT22;11070;51.336;12.340;2022-11-12T02:33:03;7.30;1.00
2062;DHT22;11070;51.336;12.340;2022-11-12T02:35:30;7.20;1.00
2062;DHT22;11070;51.336;12.340;2022-11-12T02:37:56;7.20;1.00
2062;DHT22;11070;51.336;12.340;2022-11-12T02:40:22;7.20;1.00
2062;DHT22;11070;51.336;12.340;2022-11-12T02:42:48;7.20;1.00
2062;DHT22;11070;51.336;12.340;2022-11-12T02:45:14;7.20;1.00
2062;DHT22;11070;51.336;12.340;2022-11-12T02:47:40;7.20;1.00
2062;DHT22;11070;51.336;12.340;2022-11-12T02:50:06;7.20;1.00
2062;DHT22;11070;51.336;12.340;2022-11-12T02:52:32;7.10;1.00
2062;DHT22;11070;51.336;12.340;2022-11-12T02:54:59;7.10;1.00
2062;DHT22;11070;51.336;12.340;2022-11-12T02:57:25;7.10;1.00
2062;DHT22;11070;51.336;12.340;2022-11-12T02:59:50;7.10;1.00
2062;DHT22;11070;51.336;12.340;2022-11-12T03:02:16;7.20;1.00
2062;DHT22;11070;51.336;12.340;2022-11-12T03:04:42;7.20;1.00
2062;DHT22;11070;51.336;12.340;2022-11-12T03:07:08;7.20;1.00
2062;DHT22;11070;51.336;12.340;2022-11-12T03:09:33;7.20;1.00
2062;DHT22;11070;51.336;12.340;2022-11-12T03:11:59;7.30;1.00
2062;DHT22;11070;51.336;12.340;2022-11-12T03:14:26;7.40;99.90
2062;DHT22;11070;51.336;12.340;2022-11-12T03:16:51;7.40;99.90
2062;DHT22;11070;51.336;12.340;2022-11-12T03:19:17;7.30;99.90
2062;DHT22;11070;51.336;12.340;2022-11-12T03:21:43;7.40;99.90
2062;DHT22;11070;51.336;12.340;2022-11-12T03:24:08;7.30;1.00
2062;DHT22;11070;51.336;12.340;2022-11-12T03:26:34;7.30;1.00
2062;DHT22;11070;51.336;12.340;2022-11-12T03:29:00;7.20;1.00
2062;DHT22;11070;51.336;12.340;2022-11-12T03:31:26;7.20;1.00
2062;DHT22;11070;51.336;12.340;2022-11-12T03:33:51;7.20;1.00
2062;DHT22;11070;51.336;12.340;2022-11-12T03:36:17;7.10;1.00
2062;DHT22;11070;51.336;12.340;2022-11-12T03:38:43;7.10;1.00
2062;DHT22;11070;51.336;12.340;2022-11-12T03:41:08;7.00;1.00
2062;DHT22;11070;51.336;12.340;2022-11-12T03:43:34;6.90;1.00
2062;DHT22;11070;51.336;12.340;2022-11-12T03:46:00;6.80;1.00
2062;DHT22;11070;51.336;12.340;2022-11-12T03:48:26;6.70;1.00
2062;DHT22;11070;51.336;12.340;2022-11-12T03:50:56;6.60;1.00
2062;DHT22;11070;51.336;12.340;2022-11-12T03:53:22;6.50;1.00
2062;DHT22;11070;51.336;12.340;2022-11-12T03:55:48;6.40;1.00
2062;DHT22;11070;51.336;12.340;2022-11-12T03:58:14;6.40;10.80
2062;DHT22;11070;51.336;12.340;2022-11-12T04:00:39;6.40;4.10
2062;DHT22;11070;51.336;12.340;2022-11-12T04:03:05;6.30;4.70
2062;DHT22;11070;51.336;12.340;2022-11-12T04:05:31;6.20;5.30
2062;DHT22;11070;51.336;12.340;2022-11-12T04:08:21;6.20;12.30
2062;DHT22;11070;51.336;12.340;2022-11-12T04:13:30;6.10;19.00
2062;DHT22;11070;51.336;12.340;2022-11-12T04:16:14;6.00;18.80
2062;DHT22;11070;51.336;12.340;2022-11-12T04:19:00;5.90;26.00
2062;DHT22;11070;51.336;12.340;2022-11-12T04:21:47;5.80;45.80
2062;DHT22;11070;51.336;12.340;2022-11-12T04:24:28;5.70;87.00
2062;DHT22;11070;51.336;12.340;2022-11-12T04:27:17;5.70;99.90
2062;DHT22;11070;51.336;12.340;2022-11-12T04:29:44;5.80;99.90
2062;DHT22;11070;51.336;12.340;2022-11-12T04:32:31;5.80;99.90
2062;DHT22;11070;51.336;12.340;2022-11-12T04:34:57;5.80;99.90
2062;DHT22;11070;51.336;12.340;2022-11-12T04:37:25;5.90;99.90
2062;DHT22;11070;51.336;12.340;2022-11-12T04:39:51;5.90;99.90
2062;DHT22;11070;51.336;12.340;2022-11-12T04:42:17;5.90;99.90
2062;DHT22;11070;51.336;12.340;2022-11-12T04:45:03;5.80;99.90
2062;DHT22;11070;51.336;12.340;2022-11-12T04:47:34;5.90;99.90
2062;DHT22;11070;51.336;12.340;2022-11-12T04:50:06;5.80;99.90
2062;DHT22;11070;51.336;12.340;2022-11-12T04:52:32;5.80;99.90
2062;DHT22;11070;51.336;12.340;2022-11-12T04:54:58;5.90;99.90
2062;DHT22;11070;51.336;12.340;2022-11-12T04:57:25;5.80;99.90
2062;DHT22;11070;51.336;12.340;2022-11-12T04:59:50;5.80;99.90
2062;DHT22;11070;51.336;12.340;2022-11-12T05:02:17;5.70;99.90
2062;DHT22;11070;51.336;12.340;2022-11-12T05:04:43;5.70;99.90
2062;DHT22;11070;51.336;12.340;2022-11-12T05:07:09;5.70;99.90
2062;DHT22;11070;51.336;12.340;2022-11-12T05:09:35;5.70;99.90
2062;DHT22;11070;51.336;12.340;2022-11-12T05:12:01;5.70;99.90
2062;DHT22;11070;51.336;12.340;2022-11-12T05:14:27;5.70;99.90
2062;DHT22;11070;51.336;12.340;2022-11-12T05:16:53;5.70;99.90
2062;DHT22;11070;51.336;12.340;2022-11-12T05:19:22;5.70;99.90
2062;DHT22;11070;51.336;12.340;2022-11-12T05:21:48;5.60;99.90
2062;DHT22;11070;51.336;12.340;2022-11-12T05:24:37;5.60;99.90
2062;DHT22;11070;51.336;12.340;2022-11-12T05:27:08;5.60;99.90
2062;DHT22;11070;51.336;12.340;2022-11-12T05:29:37;5.50;99.90
2062;DHT22;11070;51.336;12.340;2022-11-12T05:32:06;5.40;99.90
2062;DHT22;11070;51.336;12.340;2022-11-12T05:34:32;5.40;99.90
2062;DHT22;11070;51.336;12.340;2022-11-12T05:36:58;5.40;99.90
2062;DHT22;11070;51.336;12.340;2022-11-12T05:39:25;5.40;99.90
2062;DHT22;11070;51.336;12.340;2022-11-12T05:41:51;5.40;99.90
2062;DHT22;11070;51.336;12.340;2022-11-12T05:44:17;5.40;99.90
2062;DHT22;11070;51.336;12.340;2022-11-12T05:46:43;5.40;99.90
2062;DHT22;11070;51.336;12.340;2022-11-12T05:49:09;5.40;99.90
2062;DHT22;11070;51.336;12.340;2022-11-12T05:51:35;5.30;99.90
2062;DHT22;11070;51.336;12.340;2022-11-12T05:54:00;5.30;99.90
2062;DHT22;11070;51.336;12.340;2022-11-12T05:56:27;5.20;99.90
2062;DHT22;11070;51.336;12.340;2022-11-12T05:58:53;5.20;99.90
2062;DHT22;11070;51.336;12.340;2022-11-12T06:01:18;5.10;99.90
2062;DHT22;11070;51.336;12.340;2022-11-12T06:03:44;5.10;99.90
2062;DHT22;11070;51.336;12.340;2022-11-12T06:06:10;5.10;99.90
2062;DHT22;11070;51.336;12.340;2022-11-12T06:08:36;5.00;99.90
2062;DHT22;11070;51.336;12.340;2022-11-12T06:11:30;5.00;99.90
2062;DHT22;11070;51.336;12.340;2022-11-12T06:13:56;5.10;99.90
2062;DHT22;11070;51.336;12.340;2022-11-12T06:16:22;5.10;99.90
2062;DHT22;11070;51.336;12.340;2022-11-12T06:18:48;5.00;99.90
2062;DHT22;11070;51.336;12.340;2022-11-12T06:21:14;5.00;99.90
2062;DHT22;11070;51.336;12.340;2022-11-12T06:23:52;4.90;99.90
2062;DHT22;11070;51.336;12.340;2022-11-12T06:26:19;4.90;99.90
2062;DHT22;11070;51.336;12.340;2022-11-12T06:28:46;4.80;99.90
2062;DHT22;11070;51.336;12.340;2022-11-12T06:31:12;4.80;99.90
2062;DHT22;11070;51.336;12.340;2022-11-12T06:33:38;4.80;99.90
2062;DHT22;11070;51.336;12.340;2022-11-12T06:36:05;4.80;99.90
2062;DHT22;11070;51.336;12.340;2022-11-12T06:38:33;4.90;99.90
2062;DHT22;11070;51.336;12.340;2022-11-12T06:40:59;4.90;99.90
2062;DHT22;11070;51.336;12.340;2022-11-12T06:43:27;5.00;99.90
2062;DHT22;11070;51.336;12.340;2022-11-12T06:45:53;5.30;99.90
2062;DHT22;11070;51.336;12.340;2022-11-12T06:48:19;5.70;99.90
2062;DHT22;11070;51.336;12.340;2022-11-12T06:50:45;6.10;99.90
2062;DHT22;11070;51.336;12.340;2022-11-12T06:53:12;6.20;99.90
2062;DHT22;11070;51.336;12.340;2022-11-12T06:55:40;6.40;99.90
2062;DHT22;11070;51.336;12.340;2022-11-12T06:58:06;6.80;99.90
2062;DHT22;11070;51.336;12.340;2022-11-12T07:00:31;7.30;99.90
2062;DHT22;11070;51.336;12.340;2022-11-12T07:02:57;8.20;99.90
2062;DHT22;11070;51.336;12.340;2022-11-12T07:05:23;8.80;99.90
2062;DHT22;11070;51.336;12.340;2022-11-12T07:07:49;9.70;99.90
2062;DHT22;11070;51.336;12.340;2022-11-12T07:10:15;10.30;1.00
2062;DHT22;11070;51.336;12.340;2022-11-12T07:12:40;10.90;99.90
2062;DHT22;11070;51.336;12.340;2022-11-12T07:15:06;11.10;1.00
2062;DHT22;11070;51.336;12.340;2022-11-12T07:17:32;11.30;99.90
2062;DHT22;11070;51.336;12.340;2022-11-12T07:19:57;11.60;99.90
2062;DHT22;11070;51.336;12.340;2022-11-12T07:22:24;12.50;1.00
2062;DHT22;11070;51.336;12.340;2022-11-12T07:24:49;12.60;1.00
2062;DHT22;11070;51.336;12.340;2022-11-12T07:27:18;13.50;1.00
2062;DHT22;11070;51.336;12.340;2022-11-12T07:29:44;15.30;1.00
2062;DHT22;11070;51.336;12.340;2022-11-12T07:34:36;17.70;1.00
2062;DHT22;11070;51.336;12.340;2022-11-12T07:37:01;18.10;1.00
2062;DHT22;11070;51.336;12.340;2022-11-12T07:39:27;19.00;1.00
2062;DHT22;11070;51.336;12.340;2022-11-12T07:41:53;19.30;1.00
2062;DHT22;11070;51.336;12.340;2022-11-12T07:44:18;20.10;1.00
2062;DHT22;11070;51.336;12.340;2022-11-12T07:46:53;20.80;1.00
2062;DHT22;11070;51.336;12.340;2022-11-12T07:49:18;21.70;1.00
2062;DHT22;11070;51.336;12.340;2022-11-12T07:51:44;22.40;1.00
2062;DHT22;11070;51.336;12.340;2022-11-12T07:54:10;22.80;1.00
2062;DHT22;11070;51.336;12.340;2022-11-12T07:57:01;22.70;1.00
2062;DHT22;11070;51.336;12.340;2022-11-12T07:59:26;23.20;1.00
2062;DHT22;11070;51.336;12.340;2022-11-12T08:01:52;23.40;1.00
2062;DHT22;11070;51.336;12.340;2022-11-12T08:04:18;23.90;1.00
2062;DHT22;11070;51.336;12.340;2022-11-12T08:06:44;23.90;1.00
2062;DHT22;11070;51.336;12.340;2022-11-12T08:09:09;23.30;1.00
2062;DHT22;11070;51.336;12.340;2022-11-12T08:11:35;21.60;1.00
2062;DHT22;11070;51.336;12.340;2022-11-12T08:14:02;21.60;1.00
2062;DHT22;11070;51.336;12.340;2022-11-12T08:16:32;21.20;99.90
2062;DHT22;11070;51.336;12.340;2022-11-12T08:18:59;21.00;99.90
2062;DHT22;11070;51.336;12.340;2022-11-12T08:21:25;22.30;1.00
2062;DHT22;11070;51.336;12.340;2022-11-12T08:23:51;22.30;1.00
2062;DHT22;11070;51.336;12.340;2022-11-12T08:26:18;21.10;99.90
2062;DHT22;11070;51.336;12.340;2022-11-12T08:28:45;19.10;99.90
2062;DHT22;11070;51.336;12.340;2022-11-12T08:31:13;18.10;99.90
2062;DHT22;11070;51.336;12.340;2022-11-12T08:33:40;19.90;99.90
2062;DHT22;11070;51.336;12.340;2022-11-12T08:36:08;21.40;1.00
2062;DHT22;11070;51.336;12.340;2022-11-12T08:38:35;22.20;1.00
2062;DHT22;11070;51.336;12.340;2022-11-12T08:41:10;21.80;99.90
2062;DHT22;11070;51.336;12.340;2022-11-12T08:43:42;22.20;1.00
2062;DHT22;11070;51.336;12.340;2022-11-12T08:46:10;20.10;99.90
2062;DHT22;11070;51.336;12.340;2022-11-12T08:48:36;19.30;99.90
2062;DHT22;11070;51.336;12.340;2022-11-12T08:51:04;19.40;99.90
2062;DHT22;11070;51.336;12.340;2022-11-12T08:53:31;20.10;99.90
2062;DHT22;11070;51.336;12.340;2022-11-12T08:55:57;21.50;99.90
2062;DHT22;11070;51.336;12.340;2022-11-12T08:58:24;23.60;1.00
2062;DHT22;11070;51.336;12.340;2022-11-12T09:00:52;25.10;1.00
2062;DHT22;11070;51.336;12.340;2022-11-12T09:03:25;26.00;1.00
2062;DHT22;11070;51.336;12.340;2022-11-12T09:05:52;24.80;1.00
2062;DHT22;11070;51.336;12.340;2022-11-12T09:08:23;24.00;1.00
2062;DHT22;11070;51.336;12.340;2022-11-12T09:10:53;23.20;1.00
2062;DHT22;11070;51.336;12.340;2022-11-12T09:13:19;21.90;99.90
2062;DHT22;11070;51.336;12.340;2022-11-12T09:15:48;22.00;99.90
2062;DHT22;11070;51.336;12.340;2022-11-12T09:18:16;21.40;99.90
2062;DHT22;11070;51.336;12.340;2022-11-12T09:20:49;22.90;1.00
2062;DHT22;11070;51.336;12.340;2022-11-12T09:23:16;23.60;1.00
2062;DHT22;11070;51.336;12.340;2022-11-12T09:25:42;23.40;1.00
2062;DHT22;11070;51.336;12.340;2022-11-12T09:30:36;18.70;99.90
2062;DHT22;11070;51.336;12.340;2022-11-12T09:33:06;17.70;99.90
2062;DHT22;11070;51.336;12.340;2022-11-12T09:35:31;17.50;99.90
2062;DHT22;11070;51.336;12.340;2022-11-12T09:37:57;16.80;99.90
2062;DHT22;11070;51.336;12.340;2022-11-12T09:40:35;16.30;99.90
2062;DHT22;11070;51.336;12.340;2022-11-12T09:43:20;16.30;99.90
2062;DHT22;11070;51.336;12.340;2022-11-12T09:45:49;15.70;1.00
2062;DHT22;11070;51.336;12.340;2022-11-12T09:48:21;15.70;1.00
2062;DHT22;11070;51.336;12.340;2022-11-12T09:54:23;14.80;1.00
2062;DHT22;11070;51.336;12.340;2022-11-12T09:56:51;14.50;1.00
2062;DHT22;11070;51.336;12.340;2022-11-12T09:59:17;14.60;1.00
2062;DHT22;11070;51.336;12.340;2022-11-12T10:01:55;14.50;1.00
2062;DHT22;11070;51.336;12.340;2022-11-12T10:04:34;14.80;1.00
2062;DHT22;11070;51.336;12.340;2022-11-12T10:09:55;15.40;1.00
2062;DHT22;11070;51.336;12.340;2022-11-12T10:12:54;16.00;1.00
2062;DHT22;11070;51.336;12.340;2022-11-12T10:15:45;16.20;1.00
2062;DHT22;11070;51.336;12.340;2022-11-12T10:21:52;16.30;1.00
2062;DHT22;11070;51.336;12.340;2022-11-12T10:24:20;15.40;1.00
2062;DHT22;11070;51.336;12.340;2022-11-12T10:26:48;15.90;1.00
2062;DHT22;11070;51.336;12.340;2022-11-12T10:29:36;16.70;1.00
2062;DHT22;11070;51.336;12.340;2022-11-12T10:32:07;16.80;1.00
2062;DHT22;11070;51.336;12.340;2022-11-12T10:34:35;16.80;1.00
2062;DHT22;11070;51.336;12.340;2022-11-12T10:37:04;16.80;1.00
2062;DHT22;11070;51.336;12.340;2022-11-12T10:39:42;17.40;1.00
2062;DHT22;11070;51.336;12.340;2022-11-12T10:42:16;18.40;1.00
2062;DHT22;11070;51.336;12.340;2022-11-12T10:44:43;18.90;99.90
2062;DHT22;11070;51.336;12.340;2022-11-12T10:50:03;19.90;99.90
2062;DHT22;11070;51.336;12.340;2022-11-12T10:52:30;20.30;99.90
2062;DHT22;11070;51.336;12.340;2022-11-12T10:57:42;20.10;99.90
2062;DHT22;11070;51.336;12.340;2022-11-12T11:00:16;19.90;99.90
2062;DHT22;11070;51.336;12.340;2022-11-12T11:02:53;18.60;99.90
2062;DHT22;11070;51.336;12.340;2022-11-12T11:05:31;17.80;99.90
2062;DHT22;11070;51.336;12.340;2022-11-12T11:07:58;18.70;99.90
2062;DHT22;11070;51.336;12.340;2022-11-12T11:10:32;19.30;99.90
2062;DHT22;11070;51.336;12.340;2022-11-12T11:13:18;18.80;99.90
2062;DHT22;11070;51.336;12.340;2022-11-12T11:16:04;19.40;99.90
2062;DHT22;11070;51.336;12.340;2022-11-12T11:18:36;20.30;99.90
2062;DHT22;11070;51.336;12.340;2022-11-12T11:35:06;21.40;99.90
2062;DHT22;11070;51.336;12.340;2022-11-12T11:37:49;20.80;99.90
2062;DHT22;11070;51.336;12.340;2022-11-12T11:40:28;20.50;99.90
2062;DHT22;11070;51.336;12.340;2022-11-12T11:56:42;20.00;99.90
2062;DHT22;11070;51.336;12.340;2022-11-12T12:04:44;22.20;99.90
2062;DHT22;11070;51.336;12.340;2022-11-12T12:10:03;23.20;99.90
2062;DHT22;11070;51.336;12.340;2022-11-12T12:15:54;21.80;99.90
2062;DHT22;11070;51.336;12.340;2022-11-12T12:21:20;22.10;99.90
2062;DHT22;11070;51.336;12.340;2022-11-12T12:26:45;21.90;99.90
2062;DHT22;11070;51.336;12.340;2022-11-12T12:29:18;22.00;99.90
2062;DHT22;11070;51.336;12.340;2022-11-12T12:31:54;22.80;99.90
2062;DHT22;11070;51.336;12.340;2022-11-12T12:34:45;24.10;99.90
2062;DHT22;11070;51.336;12.340;2022-11-12T12:40:21;27.30;1.00
2062;DHT22;11070;51.336;12.340;2022-11-12T12:42:49;28.10;1.00
2062;DHT22;11070;51.336;12.340;2022-11-12T12:45:52;27.80;1.00
2062;DHT22;11070;51.336;12.340;2022-11-12T12:50:43;28.10;1.00
2062;DHT22;11070;51.336;12.340;2022-11-12T12:55:55;27.80;1.00
2062;DHT22;11070;51.336;12.340;2022-11-12T13:01:01;28.60;1.00
2062;DHT22;11070;51.336;12.340;2022-11-12T13:06:26;28.70;1.00
2062;DHT22;11070;51.336;12.340;2022-11-12T13:09:19;28.80;1.00
2062;DHT22;11070;51.336;12.340;2022-11-12T13:11:48;28.60;1.00
2062;DHT22;11070;51.336;12.340;2022-11-12T13:17:01;28.60;1.00
2062;DHT22;11070;51.336;12.340;2022-11-12T13:19:42;28.10;1.00
2062;DHT22;11070;51.336;12.340;2022-11-12T13:38:01;25.30;99.90
2062;DHT22;11070;51.336;12.340;2022-11-12T13:40:54;24.20;99.90
2062;DHT22;11070;51.336;12.340;2022-11-12T13:43:41;23.50;99.90
2062;DHT22;11070;51.336;12.340;2022-11-12T13:53:58;22.50;99.90
2062;DHT22;11070;51.336;12.340;2022-11-12T13:56:30;22.80;99.90
2062;DHT22;11070;51.336;12.340;2022-11-12T13:59:23;23.00;99.90
2062;DHT22;11070;51.336;12.340;2022-11-12T14:01:54;23.00;99.90
2062;DHT22;11070;51.336;12.340;2022-11-12T14:04:22;23.10;99.90
2062;DHT22;11070;51.336;12.340;2022-11-12T14:07:01;23.10;99.90
2062;DHT22;11070;51.336;12.340;2022-11-12T14:12:23;22.90;99.90
2062;DHT22;11070;51.336;12.340;2022-11-12T14:17:38;21.20;99.90
2062;DHT22;11070;51.336;12.340;2022-11-12T14:20:24;20.90;99.90
2062;DHT22;11070;51.336;12.340;2022-11-12T14:22:51;20.80;99.90
2062;DHT22;11070;51.336;12.340;2022-11-12T14:25:22;20.60;99.90
2062;DHT22;11070;51.336;12.340;2022-11-12T14:27:50;20.30;99.90
2062;DHT22;11070;51.336;12.340;2022-11-12T14:30:17;20.10;99.90
2062;DHT22;11070;51.336;12.340;2022-11-12T14:32:47;19.70;99.90
2062;DHT22;11070;51.336;12.340;2022-11-12T14:37:51;18.90;99.90
2062;DHT22;11070;51.336;12.340;2022-11-12T14:40:21;18.80;99.90
2062;DHT22;11070;51.336;12.340;2022-11-12T14:42:48;18.50;99.90
2062;DHT22;11070;51.336;12.340;2022-11-12T14:45:17;18.20;99.90
2062;DHT22;11070;51.336;12.340;2022-11-12T14:47:44;18.10;99.90
2062;DHT22;11070;51.336;12.340;2022-11-12T14:50:17;17.70;99.90
2062;DHT22;11070;51.336;12.340;2022-11-12T14:52:48;17.40;99.90
2062;DHT22;11070;51.336;12.340;2022-11-12T14:55:23;17.20;99.90
2062;DHT22;11070;51.336;12.340;2022-11-12T14:57:50;16.80;99.90
2062;DHT22;11070;51.336;12.340;2022-11-12T15:02:58;16.40;99.90
2062;DHT22;11070;51.336;12.340;2022-11-12T15:05:25;15.90;1.00
2062;DHT22;11070;51.336;12.340;2022-11-12T15:08:00;15.50;1.00
2062;DHT22;11070;51.336;12.340;2022-11-12T15:10:38;15.20;1.00
2062;DHT22;11070;51.336;12.340;2022-11-12T15:13:18;14.80;1.00
2062;DHT22;11070;51.336;12.340;2022-11-12T15:16:05;14.70;1.00
2062;DHT22;11070;51.336;12.340;2022-11-12T15:18:34;14.30;1.00
2062;DHT22;11070;51.336;12.340;2022-11-12T15:26:42;13.50;1.00
2062;DHT22;11070;51.336;12.340;2022-11-12T15:29:32;13.20;1.00
2062;DHT22;11070;51.336;12.340;2022-11-12T15:37:10;12.60;99.90
2062;DHT22;11070;51.336;12.340;2022-11-12T15:39:42;12.30;99.90
2062;DHT22;11070;51.336;12.340;2022-11-12T15:44:46;12.00;1.00
2062;DHT22;11070;51.336;12.340;2022-11-12T15:47:21;12.00;1.00
2062;DHT22;11070;51.336;12.340;2022-11-12T15:52:14;11.80;1.00
2062;DHT22;11070;51.336;12.340;2022-11-12T15:54:39;11.70;1.00
2062;DHT22;11070;51.336;12.340;2022-11-12T15:57:29;11.70;99.90
2062;DHT22;11070;51.336;12.340;2022-11-12T16:02:24;11.40;99.90
2062;DHT22;11070;51.336;12.340;2022-11-12T16:04:50;11.30;1.00
2062;DHT22;11070;51.336;12.340;2022-11-12T16:07:17;11.30;1.00
2062;DHT22;11070;51.336;12.340;2022-11-12T16:09:43;11.00;1.00
2062;DHT22;11070;51.336;12.340;2022-11-12T16:12:10;10.90;99.90
2062;DHT22;11070;51.336;12.340;2022-11-12T16:14:37;10.80;1.00
2062;DHT22;11070;51.336;12.340;2022-11-12T16:17:03;10.70;1.00
2062;DHT22;11070;51.336;12.340;2022-11-12T16:19:30;10.60;1.00
2062;DHT22;11070;51.336;12.340;2022-11-12T16:21:59;10.50;99.90
2062;DHT22;11070;51.336;12.340;2022-11-12T16:24:25;10.40;99.90
2062;DHT22;11070;51.336;12.340;2022-11-12T16:26:52;10.40;1.00
2062;DHT22;11070;51.336;12.340;2022-11-12T16:29:18;10.40;1.00
2062;DHT22;11070;51.336;12.340;2022-11-12T16:31:44;10.20;99.90
2062;DHT22;11070;51.336;12.340;2022-11-12T16:34:10;10.20;99.90
2062;DHT22;11070;51.336;12.340;2022-11-12T16:36:39;10.10;99.90
2062;DHT22;11070;51.336;12.340;2022-11-12T16:39:05;10.10;1.00
2062;DHT22;11070;51.336;12.340;2022-11-12T16:41:31;9.90;99.90
2062;DHT22;11070;51.336;12.340;2022-11-12T16:43:57;9.80;99.90
2062;DHT22;11070;51.336;12.340;2022-11-12T16:46:28;9.70;1.00
2062;DHT22;11070;51.336;12.340;2022-11-12T16:48:54;9.70;1.00
2062;DHT22;11070;51.336;12.340;2022-11-12T16:51:21;9.50;99.90
2062;DHT22;11070;51.336;12.340;2022-11-12T16:53:49;9.50;99.90
2062;DHT22;11070;51.336;12.340;2022-11-12T16:56:18;9.40;99.90
2062;DHT22;11070;51.336;12.340;2022-11-12T16:58:44;9.30;99.90
2062;DHT22;11070;51.336;12.340;2022-11-12T17:01:20;9.20;1.00
2062;DHT22;11070;51.336;12.340;2022-11-12T17:03:49;9.20;1.00
2062;DHT22;11070;51.336;12.340;2022-11-12T17:06:15;9.20;1.00
2062;DHT22;11070;51.336;12.340;2022-11-12T17:08:45;9.10;1.00
2062;DHT22;11070;51.336;12.340;2022-11-12T17:11:15;9.10;1.00
2062;DHT22;11070;51.336;12.340;2022-11-12T17:13:42;9.10;1.00
2062;DHT22;11070;51.336;12.340;2022-11-12T17:16:10;9.10;1.00
2062;DHT22;11070;51.336;12.340;2022-11-12T17:18:37;9.10;1.00
2062;DHT22;11070;51.336;12.340;2022-11-12T17:21:13;9.10;1.00
2062;DHT22;11070;51.336;12.340;2022-11-12T17:23:40;9.00;1.00
2062;DHT22;11070;51.336;12.340;2022-11-12T17:26:14;9.00;1.00
2062;DHT22;11070;51.336;12.340;2022-11-12T17:28:41;8.90;1.00
2062;DHT22;11070;51.336;12.340;2022-11-12T17:31:14;8.90;1.00
2062;DHT22;11070;51.336;12.340;2022-11-12T17:33:48;8.80;1.00
2062;DHT22;11070;51.336;12.340;2022-11-12T17:36:22;8.80;1.00
2062;DHT22;11070;51.336;12.340;2022-11-12T17:38:51;8.70;1.00
2062;DHT22;11070;51.336;12.340;2022-11-12T17:41:18;8.70;1.00
2062;DHT22;11070;51.336;12.340;2022-11-12T17:43:47;8.60;1.00
2062;DHT22;11070;51.336;12.340;2022-11-12T17:46:16;8.50;1.00
2062;DHT22;11070;51.336;12.340;2022-11-12T17:48:42;8.40;1.00
2062;DHT22;11070;51.336;12.340;2022-11-12T17:51:16;8.40;1.00
2062;DHT22;11070;51.336;12.340;2022-11-12T17:53:46;8.30;1.00
2062;DHT22;11070;51.336;12.340;2022-11-12T17:56:15;8.30;1.00
2062;DHT22;11070;51.336;12.340;2022-11-12T17:58:45;8.30;1.00
2062;DHT22;11070;51.336;12.340;2022-11-12T18:01:37;8.30;1.00
2062;DHT22;11070;51.336;12.340;2022-11-12T18:04:07;8.30;1.00
2062;DHT22;11070;51.336;12.340;2022-11-12T18:06:35;8.30;1.00
2062;DHT22;11070;51.336;12.340;2022-11-12T18:09:07;8.30;1.00
2062;DHT22;11070;51.336;12.340;2022-11-12T18:11:48;8.20;1.00
2062;DHT22;11070;51.336;12.340;2022-11-12T18:14:18;8.20;1.00
2062;DHT22;11070;51.336;12.340;2022-11-12T18:17:10;8.30;1.00
2062;DHT22;11070;51.336;12.340;2022-11-12T18:19:52;8.30;1.00
2062;DHT22;11070;51.336;12.340;2022-11-12T18:22:18;8.30;1.00
2062;DHT22;11070;51.336;12.340;2022-11-12T18:24:46;8.30;1.00
2062;DHT22;11070;51.336;12.340;2022-11-12T18:27:15;8.20;1.00